x

Buoy B01 - Western Maine Shelf (44030) Wave Buoy

2:04am - Tue 24th Apr 2018 All times are EDT. -4 hours from GMT.

  • Sig Wave height 2.3ft
  • Peak Period 5s
  • Wind
    13mph, 18mph gusts
  • Sea Temp 43°f
  • Air Temp 45°f
  • Sea Pressure 1027.8mb
  • Buoy B01 - Western Maine Shelf
  • Buoy B01 - Western Maine Shelf

More Historic Weather Station data

Upgrade to MSW Pro to gain access to the past 30 days of data for over 8000 Wavebouys and Weather Stations around the globe.

Join

Comparision Forecast

View Surf forecast
   
Tue 04/24 2:04am 2.5ft 5s 13 18 mph 1027.8mb 43f 45f
1:04am 2.5ft 4s 16 18 mph 1028mb 44f 46f
12:04am 2.5ft 4s 18 20 mph 1028.1mb 44f 46f
Mon 04/23 11:04pm 2.5ft 4s 16 18 mph 1028.1mb 44f 46f
10:04pm 2.5ft 4s 18 20 mph 1028.5mb 44f 46f
9:04pm 2ft 4s 16 20 mph 1028.6mb 44f 45f
8:04pm 2ft 4s 13 18 mph 1028.1mb 44f 45f
7:04pm 1.6ft 3s 13 16 mph 1027.8mb 44f 46f
6:04pm 1.3ft 3s 13 16 mph 1027.9mb 44f 46f
5:04pm 1.3ft 3s 13 16 mph 1028.4mb 44f 46f
4:04pm 1.3ft 2s 13 13 mph 1028.5mb 44f 46f
3:04pm 1ft 2s 13 13 mph 1029.1mb 44f 47f
2:04pm 1ft 11s 11 13 mph 1029.9mb 45f 47f
1:04pm 1ft 11s 11 11 mph 1030.3mb 45f 47f
12:04pm 0.3ft  -  9 9 mph 1031.1mb 44f 48f
11:04am 0.3ft  -  4 7 mph 1031.5mb 45f 47f
10:04am 0.7ft  -   -  2 mph 1031.7mb 44f 46f
9:04am 0.7ft  -  2 2 mph 1031.5mb 43f 43f
8:04am 0.7ft  -  2 4 mph 1030.9mb 43f 43f
7:04am 0.7ft  -  7 7 mph 1030.2mb 43f 42f
6:04am 0.3ft  -  4 7 mph 1029.3mb 43f 41f
5:04am 0.7ft  -  7 9 mph 1028.8mb 43f 42f
4:04am 0.7ft  -  7 9 mph 1028.5mb 43f 42f
3:04am 0.7ft  -  9 9 mph 1028.3mb 43f 43f
2:04am 0.7ft  -  7 7 mph 1028.1mb 43f 42f
1:04am 0.7ft  -  7 9 mph 1028mb 43f 42f
12:04am 0.7ft  -  2 4 mph 1027.8mb 43f 42f
Sun 04/22 11:04pm 0.7ft  -  4 4 mph 1027.5mb 43f 43f
9:04pm 1ft 3s 7 9 mph 1026.5mb 43f 44f
8:04pm 1ft 3s 9 11 mph 1025.4mb 43f 44f
7:04pm 1ft 3s 9 11 mph 1024.7mb 43f 44f
6:04pm 0.7ft  -  11 13 mph 1024.5mb 43f 45f
5:04pm 1ft 11s 11 13 mph 1024.1mb 43f 45f
4:04pm 0.7ft  -  11 11 mph 1024.1mb 43f 46f
3:04pm 0.3ft  -  11 11 mph 1024.4mb 44f 46f
2:04pm 0.7ft  -  7 9 mph 1025mb 44f 46f
1:04pm 0.3ft  -  7 7 mph 1025.4mb 45f 46f
12:04pm 1ft 8s 4 7 mph 1025.6mb 44f 46f
11:04am 1ft 8s 2 4 mph 1025.7mb 43f 48f
10:04am 0.7ft  -  4 4 mph 1025.9mb 42f 47f
9:04am 1ft 3s 7 9 mph 1025.6mb 42f 44f
8:04am 1.3ft 3s 9 11 mph 1025.4mb 42f 41f
7:04am 1ft 3s 16 16 mph 1025mb 42f 41f
6:04am 1.3ft 3s 13 13 mph 1024.5mb 42f 41f
5:04am 1.3ft 3s 13 16 mph 1023.9mb 42f 42f
4:04am 0.7ft  -  11 11 mph 1024mb 42f 42f
3:04am 1.3ft 11s 11 11 mph 1024mb 42f 42f
2:04am 0.7ft  -  7 9 mph 1024.1mb 42f 42f
1:04am 1.3ft 8s 4 7 mph 1024.5mb 42f 42f
12:04am 0.7ft  -  2 4 mph 1024.5mb 42f 42f
Sat 04/21 11:04pm 1.3ft 11s 4 7 mph 1024.3mb 42f 44f
10:04pm 1ft 3s 4 4 mph 1024.2mb 42f 44f
9:04pm 1ft 3s 2 4 mph 1023.8mb 42f 42f
8:04pm 1.3ft 3s 9 11 mph 1022.7mb 42f 42f
7:04pm 1.6ft 11s 11 13 mph 1021.5mb 42f 43f
6:04pm 1.3ft 3s 11 13 mph 1020.8mb 43f 44f
5:04pm 1ft 3s 13 16 mph 1020.3mb 43f 44f
4:04pm 1ft 2s 13 16 mph 1020.1mb 43f 44f
3:04pm 1ft 2s 11 13 mph 1020.3mb 43f 44f
2:04pm 1.3ft 11s 11 13 mph 1021.2mb 43f 44f
1:04pm 1.3ft 8s 11 13 mph 1021.9mb 43f 43f
12:04pm 1.3ft 11s 7 9 mph 1022.6mb 43f 44f
11:04am 1.3ft 8s 2 4 mph 1023.3mb 42f 45f
10:04am 1ft 3s 9 9 mph 1023.5mb 42f 43f
9:04am 1.3ft 3s 11 13 mph 1023.4mb 41f 43f
8:04am 1.3ft 3s 16 18 mph 1023.5mb 41f 42f
7:04am 1.3ft 3s 16 18 mph 1023.1mb 41f 39f
6:04am 2ft 3s 16 20 mph 1022.5mb 41f 39f
5:04am 1.6ft 3s 16 18 mph 1022.2mb 41f 39f
4:04am 1.3ft 3s 16 18 mph 1021.7mb 41f 39f
3:04am 1ft 3s 13 16 mph 1021.6mb 41f 40f
2:04am 1.3ft 3s 13 16 mph 1021.3mb 41f 40f
1:04am 1.3ft 3s 13 16 mph 1021.4mb 41f 41f
12:04am 2ft 3s 16 20 mph 1021.4mb 41f 41f
Fri 04/20 11:04pm  -   -  18 20 mph 1021.4mb 41f 41f
10:04pm  -   -  20 25 mph 1021.4mb 41f 41f
9:04pm 2.5ft 3s 20 27 mph 1021.1mb 41f 41f
8:04pm 3.5ft 4s 22 27 mph 1019.9mb 41f 42f
7:04pm 2.5ft 3s 22 27 mph 1018.3mb 41f 43f
6:04pm 2.5ft 4s 18 22 mph 1017.1mb 41f 45f
5:04pm 2.5ft 3s 20 25 mph 1015.9mb 42f 46f
4:04pm 2.5ft 3s 18 22 mph 1014.9mb 41f 46f
3:04pm  -   -  22 25 mph 1014mb 42f 45f
2:04pm 2.5ft 3s 16 20 mph 1013.9mb 42f 45f
1:04pm  -   -  18 22 mph 1013.3mb 41f 44f
12:04pm  -   -  16 18 mph 1012.8mb 41f 44f
11:04am 2.5ft 3s 18 20 mph 1012.7mb 41f 43f
9:04am 2.5ft 3s 20 25 mph 1011.6mb 41f 41f